createdAt,value
2018-05-26T00:00:30.568Z,10.77
2018-05-26T00:01:33.065Z,17.53
2018-05-26T00:02:35.576Z,9.47
2018-05-26T00:03:38.077Z,9.10
2018-05-26T00:04:40.584Z,13.80
2018-05-26T00:05:43.072Z,10.23
2018-05-26T00:06:45.580Z,11.07
2018-05-26T00:07:48.089Z,19.63
2018-05-26T00:08:50.561Z,14.73
2018-05-26T00:09:53.039Z,13.40
2018-05-26T00:10:55.537Z,10.70
2018-05-26T00:11:58.029Z,12.57
2018-05-26T00:13:00.602Z,10.77
2018-05-26T00:14:03.093Z,12.37
2018-05-26T00:15:05.595Z,12.70
2018-05-26T00:16:08.071Z,8.87
2018-05-26T00:17:10.587Z,12.50
2018-05-26T00:18:13.108Z,7.77
2018-05-26T00:19:15.609Z,10.40
2018-05-26T00:20:18.096Z,13.23
2018-05-26T00:21:20.589Z,18.90
2018-05-26T00:22:23.103Z,12.33
2018-05-26T00:23:25.601Z,10.73
2018-05-26T00:24:28.098Z,8.03
2018-05-26T00:25:30.582Z,10.60
2018-05-26T00:26:33.077Z,7.83
2018-05-26T00:27:35.591Z,16.07
2018-05-26T00:28:38.093Z,9.87
2018-05-26T00:29:40.597Z,18.77
2018-05-26T00:30:43.107Z,17.13
2018-05-26T00:31:45.582Z,12.57
2018-05-26T00:32:48.093Z,10.07
2018-05-26T00:33:50.583Z,20.87
2018-05-26T00:34:53.063Z,9.30
2018-05-26T00:35:55.538Z,12.20
2018-05-26T00:36:58.045Z,10.60
2018-05-26T00:38:00.541Z,11.60
2018-05-26T00:39:03.060Z,9.73
2018-05-26T00:40:05.571Z,8.40
2018-05-26T00:41:08.054Z,12.17
2018-05-26T00:42:10.538Z,7.57
2018-05-26T00:43:13.017Z,19.33
2018-05-26T00:44:15.500Z,8.70
2018-05-26T00:45:18.014Z,16.37
2018-05-26T00:46:20.487Z,9.87
2018-05-26T00:47:23.013Z,15.30
2018-05-26T00:48:25.527Z,10.63
2018-05-26T00:49:28.069Z,11.33
2018-05-26T00:50:30.558Z,8.37
2018-05-26T00:51:33.080Z,10.13
2018-05-26T00:52:35.576Z,10.63
2018-05-26T00:53:38.085Z,7.10
2018-05-26T00:54:40.592Z,7.23
2018-05-26T00:55:43.101Z,16.60
2018-05-26T00:56:45.605Z,10.33
2018-05-26T00:57:48.097Z,9.43
2018-05-26T00:58:50.608Z,8.77
2018-05-26T00:59:53.115Z,9.90
2018-05-26T01:00:55.628Z,15.40
2018-05-26T01:01:58.141Z,8.63
2018-05-26T01:03:00.630Z,11.40
2018-05-26T01:04:03.136Z,6.97
2018-05-26T01:05:05.610Z,12.40
2018-05-26T01:06:08.119Z,10.73
2018-05-26T01:07:10.613Z,10.53
2018-05-26T01:08:13.119Z,10.90
2018-05-26T01:09:15.590Z,9.20
2018-05-26T01:10:18.095Z,9.20
2018-05-26T01:11:20.600Z,9.43
2018-05-26T01:12:23.104Z,8.27
2018-05-26T01:13:25.593Z,11.43
2018-05-26T01:14:28.080Z,9.80
2018-05-26T01:15:30.558Z,9.63
2018-05-26T01:16:33.065Z,12.10
2018-05-26T01:17:35.538Z,11.80
2018-05-26T01:18:38.018Z,12.10
2018-05-26T01:19:40.573Z,11.10
2018-05-26T01:20:43.099Z,12.13
2018-05-26T01:21:45.574Z,6.93
2018-05-26T01:22:48.079Z,10.00
2018-05-26T01:23:50.570Z,12.33
2018-05-26T01:24:53.083Z,13.83
2018-05-26T01:25:55.604Z,8.60
2018-05-26T01:26:58.077Z,8.03
2018-05-26T01:28:00.564Z,7.97
2018-05-26T01:29:03.068Z,11.23
2018-05-26T01:30:05.565Z,12.70
2018-05-26T01:31:08.101Z,8.53
2018-05-26T01:32:10.607Z,9.60
2018-05-26T01:33:13.101Z,10.17
2018-05-26T01:34:15.600Z,10.47
2018-05-26T01:35:18.105Z,10.80
2018-05-26T01:36:20.596Z,11.77
2018-05-26T01:37:23.101Z,10.63
2018-05-26T01:38:25.605Z,8.43
2018-05-26T01:39:28.092Z,8.90
2018-05-26T01:40:30.606Z,10.80
2018-05-26T01:41:33.078Z,10.37
2018-05-26T01:42:35.573Z,26.67
2018-05-26T01:43:38.064Z,11.30
2018-05-26T01:44:40.565Z,16.00
2018-05-26T01:45:43.079Z,9.60
2018-05-26T01:46:45.587Z,13.80
2018-05-26T01:47:48.062Z,8.60
2018-05-26T01:48:50.563Z,7.30
2018-05-26T01:49:53.091Z,9.03
2018-05-26T01:50:55.589Z,7.37
2018-05-26T01:51:58.076Z,9.47
2018-05-26T01:53:00.554Z,10.70
2018-05-26T01:54:03.067Z,12.30
2018-05-26T01:55:05.589Z,8.70
2018-05-26T01:56:08.071Z,7.50
2018-05-26T01:57:10.558Z,12.87
2018-05-26T01:58:13.050Z,12.47
2018-05-26T01:59:15.548Z,10.03
2018-05-26T02:00:18.053Z,7.90
2018-05-26T02:01:20.563Z,17.53
2018-05-26T02:02:23.063Z,9.90
2018-05-26T02:03:25.557Z,6.70
2018-05-26T02:04:28.051Z,7.50
2018-05-26T02:05:30.541Z,8.67
2018-05-26T02:06:33.044Z,15.77
2018-05-26T02:07:35.537Z,10.07
2018-05-26T02:08:38.024Z,9.90
2018-05-26T02:09:40.539Z,9.30
2018-05-26T02:10:43.057Z,10.07
2018-05-26T02:11:45.549Z,10.60
2018-05-26T02:12:48.035Z,6.47
2018-05-26T02:13:50.542Z,8.10
2018-05-26T02:14:53.045Z,6.97
2018-05-26T02:15:55.516Z,9.87
2018-05-26T02:16:58.013Z,11.80
2018-05-26T02:18:00.486Z,7.33
2018-05-26T02:19:03.001Z,15.60
2018-05-26T02:20:05.493Z,9.97
2018-05-26T02:21:07.994Z,8.17
2018-05-26T02:22:10.471Z,11.30
2018-05-26T02:23:12.969Z,12.33
2018-05-26T02:24:15.468Z,7.67
2018-05-26T02:25:17.975Z,14.10
2018-05-26T02:26:20.461Z,6.43
2018-05-26T02:27:22.960Z,13.53
2018-05-26T02:28:25.435Z,13.33
2018-05-26T02:29:27.930Z,9.53
2018-05-26T02:30:30.409Z,13.47
2018-05-26T02:31:32.897Z,8.63
2018-05-26T02:32:35.397Z,7.00
2018-05-26T02:33:37.913Z,9.57
2018-05-26T02:34:40.455Z,5.57
2018-05-26T02:35:42.932Z,13.13
2018-05-26T02:36:45.435Z,7.67
2018-05-26T02:37:47.906Z,9.67
2018-05-26T02:38:50.401Z,9.23
2018-05-26T02:39:52.875Z,9.57
2018-05-26T02:40:55.387Z,6.37
2018-05-26T02:41:57.887Z,16.63
2018-05-26T02:43:00.377Z,12.63
2018-05-26T02:44:02.866Z,12.77
2018-05-26T02:45:05.382Z,7.87
2018-05-26T02:46:07.872Z,8.23
2018-05-26T02:47:10.363Z,8.77
2018-05-26T02:48:12.871Z,10.77
2018-05-26T02:49:15.389Z,10.30
2018-05-26T02:50:17.881Z,7.20
2018-05-26T02:51:20.350Z,6.77
2018-05-26T02:52:22.837Z,8.63
2018-05-26T02:53:25.364Z,12.63
2018-05-26T02:54:27.863Z,8.00
2018-05-26T02:55:30.375Z,10.80
2018-05-26T02:56:32.865Z,9.43
2018-05-26T02:57:35.349Z,7.80
2018-05-26T02:58:37.865Z,12.00
2018-05-26T02:59:40.357Z,6.83
2018-05-26T03:00:42.848Z,7.27
2018-05-26T03:01:45.849Z,14.07
2018-05-26T03:02:48.393Z,11.83
2018-05-26T03:03:50.663Z,9.30
2018-05-26T03:04:58.737Z,7.27
2018-05-26T03:06:06.837Z,13.70
2018-05-26T03:07:15.132Z,9.93
2018-05-26T03:08:23.634Z,9.63
2018-05-26T03:09:31.855Z,10.93
2018-05-26T03:10:40.026Z,9.40
2018-05-26T03:11:48.090Z,11.07
2018-05-26T03:12:56.297Z,8.70
2018-05-26T03:14:04.354Z,10.60
2018-05-26T03:15:06.288Z,8.40
2018-05-26T03:17:52.027Z,16.23
2018-05-26T03:18:54.523Z,7.10
2018-05-26T03:19:57.022Z,11.87
2018-05-26T03:20:59.512Z,10.37
2018-05-26T03:22:02.019Z,13.80
2018-05-26T03:23:04.515Z,12.70
2018-05-26T03:24:06.990Z,13.33
2018-05-26T03:25:09.495Z,10.23
2018-05-26T03:26:11.989Z,6.43
2018-05-26T03:27:14.488Z,5.30
2018-05-26T03:28:16.989Z,7.40
2018-05-26T03:29:19.497Z,11.23
2018-05-26T03:30:21.990Z,10.27
2018-05-26T03:31:24.509Z,11.50
2018-05-26T03:32:27.008Z,19.37
2018-05-26T03:33:29.505Z,14.83
2018-05-26T03:34:31.988Z,8.30
2018-05-26T03:35:34.477Z,11.53
2018-05-26T03:36:36.954Z,9.07
2018-05-26T03:37:39.491Z,9.90
2018-05-26T03:38:41.977Z,8.77
2018-05-26T03:39:44.586Z,12.30
2018-05-26T03:40:47.062Z,10.70
2018-05-26T03:41:49.535Z,6.10
2018-05-26T03:42:52.041Z,11.57
2018-05-26T03:43:54.528Z,6.80
2018-05-26T03:44:56.998Z,6.30
2018-05-26T03:45:59.490Z,14.20
2018-05-26T03:47:01.982Z,5.83
2018-05-26T03:48:04.485Z,8.00
2018-05-26T03:49:06.984Z,7.73
2018-05-26T03:50:09.469Z,5.57
2018-05-26T03:51:11.956Z,10.80
2018-05-26T03:52:14.513Z,9.87
2018-05-26T03:53:17.001Z,7.03
2018-05-26T03:54:19.471Z,5.60
2018-05-26T03:55:34.756Z,16.40
2018-05-26T03:56:49.125Z,7.30
2018-05-26T03:59:39.443Z,9.77
2018-05-26T04:00:41.937Z,8.87
2018-05-26T04:01:44.431Z,6.73
2018-05-26T04:02:46.899Z,6.50
2018-05-26T04:03:49.393Z,10.40
2018-05-26T04:04:51.871Z,13.40
2018-05-26T04:05:54.371Z,10.50
2018-05-26T04:06:56.877Z,11.63
2018-05-26T04:07:59.387Z,8.43
2018-05-26T04:09:01.881Z,10.83
2018-05-26T04:10:04.386Z,9.63
2018-05-26T04:11:06.932Z,10.60
2018-05-26T04:12:09.433Z,7.63
2018-05-26T04:13:11.921Z,8.90
2018-05-26T04:14:14.439Z,10.50
2018-05-26T04:15:16.918Z,11.10
2018-05-26T04:16:19.439Z,6.80
2018-05-26T04:17:21.947Z,10.37
2018-05-26T04:18:24.451Z,8.07
2018-05-26T04:19:26.926Z,10.73
2018-05-26T04:20:29.405Z,9.50
2018-05-26T04:21:31.901Z,10.57
2018-05-26T04:22:34.403Z,9.27
2018-05-26T04:23:36.908Z,12.23
2018-05-26T04:24:39.379Z,6.43
2018-05-26T04:25:41.873Z,8.47
2018-05-26T04:26:44.378Z,40.80
2018-05-26T04:27:46.873Z,9.03
2018-05-26T04:28:49.360Z,5.90
2018-05-26T04:29:51.845Z,7.90
2018-05-26T04:30:54.349Z,6.70
2018-05-26T04:31:56.857Z,7.30
2018-05-26T04:32:59.364Z,8.63
2018-05-26T04:34:01.861Z,14.53
2018-05-26T04:35:04.335Z,7.70
2018-05-26T04:36:06.866Z,12.43
2018-05-26T04:37:09.385Z,10.20
2018-05-26T04:38:11.885Z,10.77
2018-05-26T04:39:14.369Z,12.97
2018-05-26T04:40:16.857Z,9.83
2018-05-26T04:41:19.353Z,17.30
2018-05-26T04:42:21.869Z,8.60
2018-05-26T04:43:24.356Z,7.13
2018-05-26T04:44:26.865Z,10.60
2018-05-26T04:45:29.373Z,9.87
2018-05-26T04:46:31.869Z,7.97
2018-05-26T04:47:34.346Z,11.73
2018-05-26T04:48:36.846Z,12.60
2018-05-26T04:49:39.333Z,7.03
2018-05-26T04:50:41.833Z,7.03
2018-05-26T04:51:44.325Z,8.10
2018-05-26T04:52:46.841Z,8.23
2018-05-26T04:53:49.318Z,9.10
2018-05-26T04:54:51.805Z,17.97
2018-05-26T04:55:54.309Z,7.30
2018-05-26T04:56:56.820Z,12.40
2018-05-26T04:57:59.308Z,5.90
2018-05-26T04:59:01.801Z,8.10
2018-05-26T05:00:04.317Z,12.10
2018-05-26T05:01:06.809Z,9.37
2018-05-26T05:02:09.300Z,11.57
2018-05-26T05:03:11.797Z,10.40
2018-05-26T05:04:14.267Z,10.33
2018-05-26T05:05:16.769Z,7.90
2018-05-26T05:06:19.261Z,12.13
2018-05-26T05:07:21.740Z,10.73
2018-05-26T05:08:24.254Z,9.10
2018-05-26T05:09:26.754Z,10.67
2018-05-26T05:10:29.247Z,5.80
2018-05-26T05:11:31.758Z,10.47
2018-05-26T05:12:34.236Z,15.07
2018-05-26T05:13:36.735Z,9.83
2018-05-26T05:14:39.207Z,7.70
2018-05-26T05:15:41.781Z,7.77
2018-05-26T05:16:44.277Z,10.13
2018-05-26T05:17:46.765Z,12.67
2018-05-26T05:18:49.269Z,7.90
2018-05-26T05:19:51.769Z,12.23
2018-05-26T05:20:54.259Z,7.37
2018-05-26T05:21:56.755Z,10.47
2018-05-26T05:22:59.230Z,9.33
2018-05-26T05:24:01.725Z,12.30
2018-05-26T05:25:04.217Z,11.00
2018-05-26T05:26:06.699Z,11.40
2018-05-26T05:27:09.347Z,7.43
2018-05-26T05:28:11.834Z,6.80
2018-05-26T05:29:14.337Z,6.70
2018-05-26T05:30:16.832Z,12.33
2018-05-26T05:31:19.308Z,12.90
2018-05-26T05:32:21.792Z,8.30
2018-05-26T05:33:24.262Z,8.40
2018-05-26T05:34:26.769Z,14.20
2018-05-26T05:35:29.263Z,8.60
2018-05-26T05:36:31.775Z,11.97
2018-05-26T05:37:34.303Z,8.43
2018-05-26T05:38:36.875Z,7.13
2018-05-26T05:39:39.387Z,11.33
2018-05-26T05:40:41.937Z,9.83
2018-05-26T05:41:44.441Z,7.87
2018-05-26T05:42:46.932Z,9.30
2018-05-26T05:43:49.423Z,7.80
2018-05-26T05:44:51.894Z,13.93
2018-05-26T05:45:54.399Z,10.37
2018-05-26T05:46:56.867Z,5.50
2018-05-26T05:47:59.345Z,18.80
2018-05-26T05:49:01.838Z,18.93
2018-05-26T05:50:04.336Z,10.27
2018-05-26T05:51:06.845Z,6.57
2018-05-26T05:52:09.355Z,12.50
2018-05-26T05:53:11.859Z,6.17
2018-05-26T05:54:14.369Z,11.10
2018-05-26T05:55:16.875Z,6.87
2018-05-26T05:56:19.417Z,20.00
2018-05-26T05:57:21.879Z,8.20
2018-05-26T05:58:24.362Z,8.27
2018-05-26T05:59:26.855Z,9.20
2018-05-26T06:00:29.340Z,5.70
2018-05-26T06:01:31.815Z,11.17
2018-05-26T06:02:34.337Z,20.60
2018-05-26T06:03:36.854Z,7.20
2018-05-26T06:04:39.367Z,11.80
2018-05-26T06:05:41.871Z,9.83
2018-05-26T06:06:44.360Z,7.00
2018-05-26T06:07:47.030Z,4.83
2018-05-26T06:08:49.524Z,11.30
2018-05-26T06:09:52.028Z,7.50
2018-05-26T06:10:54.535Z,6.63
2018-05-26T06:11:57.014Z,7.83
2018-05-26T06:12:59.525Z,10.33
2018-05-26T06:14:02.049Z,5.80
2018-05-26T06:15:04.558Z,7.33
2018-05-26T06:16:07.046Z,14.67
2018-05-26T06:17:09.546Z,11.60
2018-05-26T06:18:12.061Z,11.00
2018-05-26T06:19:14.556Z,8.07
2018-05-26T06:20:17.035Z,7.97
2018-05-26T06:21:19.517Z,7.93
2018-05-26T06:22:22.030Z,11.00
2018-05-26T06:23:24.544Z,11.93
2018-05-26T06:24:27.028Z,11.17
2018-05-26T06:25:29.535Z,13.63
2018-05-26T06:26:32.030Z,7.27
2018-05-26T06:27:34.541Z,8.13
2018-05-26T06:28:37.071Z,15.07
2018-05-26T06:29:39.607Z,8.37
2018-05-26T06:30:42.116Z,23.13
2018-05-26T06:31:44.623Z,9.70
2018-05-26T06:32:47.195Z,6.40
2018-05-26T06:33:49.685Z,12.20
2018-05-26T06:34:52.201Z,7.37
2018-05-26T06:35:54.783Z,7.40
2018-05-26T06:36:57.278Z,9.20
2018-05-26T06:37:59.791Z,8.87
2018-05-26T06:39:02.302Z,8.07
2018-05-26T06:40:04.822Z,8.17
2018-05-26T06:41:07.311Z,13.50
2018-05-26T06:42:09.804Z,7.33
2018-05-26T06:43:12.309Z,10.10
2018-05-26T06:44:14.779Z,8.70
2018-05-26T06:45:17.294Z,11.83
2018-05-26T06:46:19.789Z,7.70
2018-05-26T06:47:22.292Z,8.13
2018-05-26T06:48:24.803Z,8.00
2018-05-26T06:49:27.293Z,8.50
2018-05-26T06:50:29.788Z,8.53
2018-05-26T06:51:32.267Z,12.33
2018-05-26T06:52:34.789Z,10.67
2018-05-26T06:53:37.285Z,6.73
2018-05-26T06:54:39.795Z,7.40
2018-05-26T06:55:42.270Z,7.33
2018-05-26T06:56:44.761Z,10.33
2018-05-26T06:57:47.254Z,7.93
2018-05-26T06:58:49.730Z,7.60
2018-05-26T06:59:52.233Z,7.07
2018-05-26T07:00:54.720Z,7.63
2018-05-26T07:01:57.232Z,8.60
2018-05-26T07:02:59.721Z,12.77
2018-05-26T07:04:02.229Z,7.93
2018-05-26T07:05:04.717Z,7.17
2018-05-26T07:06:07.192Z,8.93
2018-05-26T07:07:09.705Z,7.23
2018-05-26T07:08:12.217Z,7.40
2018-05-26T07:09:14.714Z,7.77
2018-05-26T07:10:17.267Z,8.07
2018-05-26T07:11:19.757Z,8.57
2018-05-26T07:12:22.242Z,7.20
2018-05-26T07:13:24.714Z,7.33
2018-05-26T07:14:27.209Z,7.20
2018-05-26T07:15:29.721Z,7.90
2018-05-26T07:16:32.228Z,7.57
2018-05-26T07:17:34.752Z,10.20
2018-05-26T07:18:37.255Z,8.73
2018-05-26T07:19:39.753Z,7.63
2018-05-26T07:20:42.267Z,14.07
2018-05-26T07:21:44.759Z,9.70
2018-05-26T07:22:47.260Z,8.50
2018-05-26T07:23:49.775Z,12.60
2018-05-26T07:24:52.284Z,10.87
2018-05-26T07:25:54.792Z,11.17
2018-05-26T07:26:57.289Z,9.83
2018-05-26T07:27:59.796Z,8.93
2018-05-26T07:29:02.278Z,11.27
2018-05-26T07:30:04.766Z,8.60
2018-05-26T07:31:07.273Z,10.20
2018-05-26T07:32:09.781Z,9.70
2018-05-26T07:33:12.273Z,10.13
2018-05-26T07:34:14.768Z,10.30
2018-05-26T07:35:17.282Z,11.70
2018-05-26T07:36:19.798Z,12.27
2018-05-26T07:37:23.158Z,11.77
2018-05-26T07:38:25.648Z,10.70
2018-05-26T07:39:28.186Z,12.23
2018-05-26T07:40:30.707Z,16.33
2018-05-26T07:41:33.208Z,52.97
2018-05-26T07:42:35.712Z,17.57
2018-05-26T07:43:38.224Z,11.10
2018-05-26T07:44:40.721Z,16.10
2018-05-26T07:45:43.232Z,13.27
2018-05-26T07:46:45.745Z,13.40
2018-05-26T07:47:48.229Z,20.23
2018-05-26T07:48:50.708Z,16.73
2018-05-26T07:49:53.193Z,14.77
2018-05-26T07:50:55.711Z,12.47
2018-05-26T07:51:58.205Z,12.50
2018-05-26T07:53:00.705Z,11.73
2018-05-26T07:54:03.203Z,10.77
2018-05-26T07:55:05.700Z,10.57
2018-05-26T07:56:08.211Z,17.93
2018-05-26T07:57:10.713Z,12.30
2018-05-26T07:58:13.210Z,15.90
2018-05-26T07:59:15.697Z,12.70
2018-05-26T08:00:18.200Z,11.37
2018-05-26T08:01:20.683Z,15.70
2018-05-26T08:02:23.189Z,17.40
2018-05-26T08:03:25.770Z,12.63
2018-05-26T08:04:28.247Z,11.80
2018-05-26T08:05:30.813Z,12.73
2018-05-26T08:06:33.291Z,11.07
2018-05-26T08:07:35.770Z,13.17
2018-05-26T08:08:38.269Z,11.23
2018-05-26T08:09:40.760Z,11.13
2018-05-26T08:10:43.277Z,12.10
2018-05-26T08:11:45.756Z,15.63
2018-05-26T08:12:48.245Z,10.67
2018-05-26T08:13:50.737Z,11.13
2018-05-26T08:14:53.234Z,12.30
2018-05-26T08:15:55.732Z,12.50
2018-05-26T08:16:58.218Z,10.73
2018-05-26T08:18:00.699Z,15.70
2018-05-26T08:19:03.210Z,12.33
2018-05-26T08:20:05.729Z,14.83
2018-05-26T08:21:08.245Z,9.90
2018-05-26T08:22:10.714Z,9.63
2018-05-26T08:23:13.223Z,12.60
2018-05-26T08:24:15.727Z,11.13
2018-05-26T08:25:18.233Z,13.63
2018-05-26T08:26:20.753Z,10.27
2018-05-26T08:27:23.269Z,14.40
2018-05-26T08:28:25.768Z,10.20
2018-05-26T08:29:28.260Z,14.93
2018-05-26T08:30:30.784Z,11.03
2018-05-26T08:31:33.359Z,11.07
2018-05-26T08:32:35.855Z,13.60
2018-05-26T08:33:38.346Z,10.00
2018-05-26T08:34:40.840Z,11.90
2018-05-26T08:35:43.352Z,11.70
2018-05-26T08:36:45.845Z,10.30
2018-05-26T08:37:48.348Z,10.30
2018-05-26T08:38:50.848Z,11.03
2018-05-26T08:39:53.337Z,12.37
2018-05-26T08:40:55.873Z,10.70
2018-05-26T08:41:58.378Z,11.07
2018-05-26T08:43:00.883Z,10.40
2018-05-26T08:44:03.383Z,9.83
2018-05-26T08:45:05.877Z,13.73
2018-05-26T08:46:08.381Z,10.60
2018-05-26T08:47:10.923Z,9.73
2018-05-26T08:48:13.400Z,11.07
2018-05-26T08:49:15.896Z,12.50
2018-05-26T08:50:18.389Z,11.80
2018-05-26T08:51:20.904Z,16.20
2018-05-26T08:52:23.415Z,10.50
2018-05-26T08:53:25.939Z,10.80
2018-05-26T08:54:28.433Z,13.27
2018-05-26T08:55:30.925Z,11.60
2018-05-26T08:56:33.450Z,14.00
2018-05-26T08:57:35.983Z,12.43
2018-05-26T08:58:38.478Z,11.60
2018-05-26T08:59:40.970Z,10.10
2018-05-26T09:00:43.443Z,11.03
2018-05-26T09:01:45.935Z,11.20
2018-05-26T09:02:48.410Z,9.83
2018-05-26T09:03:50.918Z,11.07
2018-05-26T09:04:53.429Z,10.83
2018-05-26T09:05:55.961Z,11.93
2018-05-26T09:06:58.472Z,11.10
2018-05-26T09:08:00.962Z,10.07
2018-05-26T09:09:03.457Z,11.73
2018-05-26T09:10:05.947Z,12.50
2018-05-26T09:11:08.445Z,11.07
2018-05-26T09:12:10.939Z,11.40
2018-05-26T09:13:13.433Z,9.50
2018-05-26T09:14:15.937Z,10.07
2018-05-26T09:15:18.415Z,10.17
2018-05-26T09:16:20.934Z,11.10
2018-05-26T09:17:23.438Z,17.10
2018-05-26T09:18:25.938Z,17.67
2018-05-26T09:19:28.442Z,13.00
2018-05-26T09:20:30.945Z,12.60
2018-05-26T09:21:33.431Z,19.13
2018-05-26T09:22:36.269Z,10.90
2018-05-26T09:23:38.777Z,11.03
2018-05-26T09:24:41.273Z,11.07
2018-05-26T09:25:43.844Z,16.03
2018-05-26T09:26:46.371Z,16.10
2018-05-26T09:27:48.888Z,14.03
2018-05-26T09:28:51.377Z,11.40
2018-05-26T09:29:53.865Z,13.33
2018-05-26T09:30:56.347Z,12.30
2018-05-26T09:31:58.826Z,16.23
2018-05-26T09:33:01.325Z,15.97
2018-05-26T09:34:03.846Z,15.63
2018-05-26T09:35:06.333Z,15.67
2018-05-26T09:36:08.839Z,14.10
2018-05-26T09:37:11.377Z,15.47
2018-05-26T09:38:13.893Z,15.40
2018-05-26T09:39:16.501Z,16.53
2018-05-26T09:40:19.999Z,14.30
2018-05-26T09:41:22.537Z,15.87
2018-05-26T09:42:25.053Z,17.37
2018-05-26T09:43:27.569Z,17.40
2018-05-26T09:44:30.075Z,20.60
2018-05-26T09:45:32.592Z,20.57
2018-05-26T09:46:35.092Z,17.33
2018-05-26T09:47:37.636Z,17.80
2018-05-26T09:48:40.133Z,21.40
2018-05-26T09:49:42.620Z,23.97
2018-05-26T09:50:45.123Z,17.17
2018-05-26T09:51:47.643Z,16.97
2018-05-26T09:52:50.128Z,17.57
2018-05-26T09:53:52.652Z,16.87
2018-05-26T09:54:55.160Z,16.07
2018-05-26T09:55:57.718Z,16.17
2018-05-26T09:57:00.226Z,18.33
2018-05-26T09:58:02.725Z,17.60
2018-05-26T09:59:05.244Z,20.80
2018-05-26T10:00:07.727Z,20.13
2018-05-26T10:01:10.221Z,16.67
2018-05-26T10:02:12.738Z,16.77
2018-05-26T10:03:15.232Z,16.63
2018-05-26T10:04:17.759Z,16.47
2018-05-26T10:05:20.227Z,18.07
2018-05-26T10:06:22.707Z,15.67
2018-05-26T10:07:25.239Z,19.90
2018-05-26T10:08:27.726Z,22.00
2018-05-26T10:09:30.210Z,18.87
2018-05-26T10:10:32.691Z,16.87
2018-05-26T10:11:35.171Z,21.37
2018-05-26T10:12:37.688Z,18.60
2018-05-26T10:13:40.179Z,18.80
2018-05-26T10:14:42.680Z,16.60
2018-05-26T10:15:45.186Z,17.53
2018-05-26T10:16:47.693Z,19.70
2018-05-26T10:17:50.232Z,14.33
2018-05-26T10:18:52.773Z,16.53
2018-05-26T10:19:55.322Z,15.30
2018-05-26T10:20:57.793Z,16.13
2018-05-26T10:22:00.305Z,20.53
2018-05-26T10:23:02.815Z,21.70
2018-05-26T10:24:05.317Z,17.73
2018-05-26T10:25:07.824Z,19.20
2018-05-26T10:26:10.327Z,17.03
2018-05-26T10:27:12.829Z,15.10
2018-05-26T10:28:15.327Z,14.90
2018-05-26T10:29:17.825Z,16.97
2018-05-26T10:30:20.409Z,14.07
2018-05-26T10:31:22.908Z,16.13
2018-05-26T10:32:25.427Z,15.87
2018-05-26T10:33:27.992Z,19.03
2018-05-26T10:34:30.503Z,16.70
2018-05-26T10:35:33.009Z,14.30
2018-05-26T10:36:35.508Z,16.30
2018-05-26T10:37:38.005Z,15.50
2018-05-26T10:38:40.549Z,15.90
2018-05-26T10:39:43.039Z,15.97
2018-05-26T10:40:45.533Z,14.27
2018-05-26T10:41:48.104Z,18.90
2018-05-26T10:42:50.597Z,16.97
2018-05-26T10:43:53.121Z,15.97
2018-05-26T10:44:55.616Z,16.13
2018-05-26T10:46:09.996Z,14.60
2018-05-26T10:47:12.525Z,18.67
2018-05-26T10:48:15.060Z,16.03
2018-05-26T10:49:17.604Z,16.63
2018-05-26T10:50:20.117Z,16.30
2018-05-26T10:51:22.613Z,14.50
2018-05-26T10:52:25.128Z,15.63
2018-05-26T10:53:27.622Z,14.73
2018-05-26T10:54:30.150Z,18.20
2018-05-26T10:55:32.631Z,15.33
2018-05-26T10:56:35.110Z,13.13
2018-05-26T10:57:37.605Z,15.87
2018-05-26T10:58:40.115Z,16.60
2018-05-26T10:59:42.629Z,15.23
2018-05-26T11:00:45.124Z,14.47
2018-05-26T11:01:47.661Z,14.10
2018-05-26T11:02:50.163Z,14.47
2018-05-26T11:03:52.663Z,15.40
2018-05-26T11:04:55.201Z,18.33
2018-05-26T11:05:57.697Z,17.90
2018-05-26T11:07:00.197Z,15.13
2018-05-26T11:08:02.716Z,14.67
2018-05-26T11:09:05.243Z,14.97
2018-05-26T11:10:07.776Z,15.03
2018-05-26T11:11:10.262Z,14.60
2018-05-26T11:12:12.749Z,14.97
2018-05-26T11:13:15.265Z,15.90
2018-05-26T11:14:17.799Z,15.20
2018-05-26T11:15:20.329Z,15.70
2018-05-26T11:16:22.936Z,16.70
2018-05-26T11:17:25.334Z,15.10
2018-05-26T11:18:27.829Z,16.63
2018-05-26T11:19:30.355Z,14.83
2018-05-26T11:20:32.857Z,15.20
2018-05-26T11:21:35.353Z,15.30
2018-05-26T11:22:37.860Z,15.20
2018-05-26T11:23:40.375Z,14.70
2018-05-26T11:24:42.939Z,13.67
2018-05-26T11:25:45.428Z,13.90
2018-05-26T11:26:47.936Z,16.70
2018-05-26T11:27:50.441Z,16.47
2018-05-26T11:28:52.962Z,14.60
2018-05-26T11:29:55.468Z,15.50
2018-05-26T11:30:57.962Z,13.90
2018-05-26T11:32:00.477Z,14.37
2018-05-26T11:33:02.962Z,16.33
2018-05-26T11:34:05.455Z,16.07
2018-05-26T11:35:07.953Z,18.53
2018-05-26T11:36:10.473Z,14.53
2018-05-26T11:37:12.995Z,14.10
2018-05-26T11:38:15.507Z,16.77
2018-05-26T11:39:18.039Z,13.33
2018-05-26T11:40:20.523Z,13.90
2018-05-26T11:41:23.011Z,13.60
2018-05-26T11:42:25.508Z,14.93
2018-05-26T11:43:28.005Z,12.23
2018-05-26T11:44:30.517Z,14.40
2018-05-26T11:45:33.028Z,17.10
2018-05-26T11:46:35.528Z,14.23
2018-05-26T11:47:38.045Z,13.57
2018-05-26T11:48:40.561Z,15.90
2018-05-26T11:49:43.064Z,13.93
2018-05-26T11:50:45.568Z,14.63
2018-05-26T11:51:48.067Z,14.37
2018-05-26T11:52:50.557Z,15.70
2018-05-26T11:53:53.054Z,15.73
2018-05-26T11:54:55.535Z,13.57
2018-05-26T11:55:58.052Z,15.47
2018-05-26T11:57:00.580Z,13.57
2018-05-26T11:58:03.087Z,15.50
2018-05-26T11:59:05.583Z,16.60
2018-05-26T12:00:08.081Z,21.53
2018-05-26T12:01:10.577Z,16.43
2018-05-26T12:02:13.088Z,14.90
2018-05-26T12:03:15.587Z,13.23
2018-05-26T12:04:18.106Z,20.80
2018-05-26T12:05:20.598Z,18.57
2018-05-26T12:06:23.097Z,19.47
2018-05-26T12:07:25.609Z,17.67
2018-05-26T12:08:28.107Z,15.00
2018-05-26T12:09:30.606Z,17.23
2018-05-26T12:10:33.105Z,26.73
2018-05-26T12:11:35.675Z,16.83
2018-05-26T12:12:38.191Z,16.10
2018-05-26T12:13:40.690Z,18.73
2018-05-26T12:14:43.204Z,14.53
2018-05-26T12:15:45.720Z,18.63
2018-05-26T12:16:48.253Z,20.80
2018-05-26T12:17:50.866Z,16.20
2018-05-26T12:18:53.390Z,16.97
2018-05-26T12:19:55.879Z,21.70
2018-05-26T12:20:58.368Z,18.73
2018-05-26T12:22:00.873Z,22.17
2018-05-26T12:23:03.399Z,30.50
2018-05-26T12:24:05.907Z,18.30
2018-05-26T12:25:08.395Z,18.83
2018-05-26T12:26:10.881Z,53.53
2018-05-26T12:27:13.407Z,22.43
2018-05-26T12:28:15.917Z,28.23
2018-05-26T12:29:18.398Z,48.33
2018-05-26T12:30:20.943Z,32.53
2018-05-26T12:31:23.422Z,26.07
2018-05-26T12:32:25.930Z,21.07
2018-05-26T12:33:28.415Z,28.50
2018-05-26T12:34:30.897Z,49.13
2018-05-26T12:35:33.501Z,20.43
2018-05-26T12:36:35.991Z,36.67
2018-05-26T12:37:38.489Z,26.00
2018-05-26T12:38:40.993Z,24.80
2018-05-26T12:39:43.482Z,31.97
2018-05-26T12:40:45.999Z,26.27
2018-05-26T12:41:48.486Z,37.50
2018-05-26T12:42:50.983Z,33.73
2018-05-26T12:43:53.493Z,29.17
2018-05-26T12:44:55.997Z,30.20
2018-05-26T12:45:58.497Z,45.93
2018-05-26T12:47:01.037Z,29.13
2018-05-26T12:48:03.585Z,32.67
2018-05-26T12:49:06.162Z,43.40
2018-05-26T12:50:08.689Z,28.20
2018-05-26T12:51:11.227Z,35.40
2018-05-26T12:52:15.850Z,23.17
2018-05-26T12:53:18.459Z,29.37
2018-05-26T12:54:20.968Z,25.00
2018-05-26T12:55:23.465Z,30.60
2018-05-26T12:56:26.159Z,36.60
2018-05-26T12:57:28.687Z,26.40
2018-05-26T12:58:31.771Z,24.17
2018-05-26T12:59:34.274Z,31.73
2018-05-26T13:00:36.792Z,28.70
2018-05-26T13:01:39.327Z,24.50
2018-05-26T13:02:41.830Z,40.83
2018-05-26T13:03:44.329Z,50.87
2018-05-26T13:04:46.830Z,48.27
2018-05-26T13:05:49.344Z,68.97
2018-05-26T13:06:51.853Z,51.17
2018-05-26T13:07:54.345Z,61.63
2018-05-26T13:08:56.856Z,50.07
2018-05-26T13:09:59.353Z,50.43
2018-05-26T13:11:01.853Z,52.17
2018-05-26T13:12:04.368Z,78.33
2018-05-26T13:13:06.865Z,63.60
2018-05-26T13:14:09.381Z,62.30
2018-05-26T13:15:11.912Z,48.63
2018-05-26T13:16:14.418Z,49.57
2018-05-26T13:17:16.918Z,59.83
2018-05-26T13:18:19.399Z,46.77
2018-05-26T13:19:22.522Z,53.00
2018-05-26T13:20:25.029Z,50.70
2018-05-26T13:21:27.558Z,55.80
2018-05-26T13:22:30.078Z,49.87
2018-05-26T13:23:33.551Z,38.33
2018-05-26T13:24:36.194Z,51.37
2018-05-26T13:25:38.709Z,55.50
2018-05-26T13:26:41.688Z,42.50
2018-05-26T13:27:46.524Z,46.50
2018-05-26T13:28:49.037Z,44.10
2018-05-26T13:29:51.528Z,34.93
2018-05-26T13:30:54.059Z,47.63
2018-05-26T13:31:56.604Z,37.13
2018-05-26T13:32:59.104Z,37.47
2018-05-26T13:34:01.595Z,37.37
2018-05-26T13:35:04.093Z,39.10
2018-05-26T13:36:06.969Z,45.57
2018-05-26T13:37:09.664Z,56.10
2018-05-26T13:38:12.336Z,39.27